Observation data for Lamesa on 12/08/2018      Previous  Date       Current Mesonet Observations  Soil Data  Daily Summary Page  Observations in Plain Language
KLES 080600Z 03007KT 01/00 A3026 RMK A01 T00060002  RH  099%=      5-min Rain = 0.01
KLES 080605Z 02006KT 01/00 A3026 RMK A01 T00060003  RH  099%=      5-min Rain = 0.01
KLES 080610Z 02005KT 01/00 A3026 RMK A01 T00070004  RH  099%=      5-min Rain = 0.01
KLES 080615Z 02006KT 01/00 A3026 RMK A01 T00070004  RH  099%=      5-min Rain = 0.01
KLES 080620Z 02008KT 01/00 A3026 RMK A01 T00070004  RH  099%=      5-min Rain = 0.01
KLES 080625Z 02008KT 01/00 A3025 RMK A01 T00060003  RH  099%=      5-min Rain = 0.01
KLES 080630Z 02007KT 01/00 A3025 RMK A01 T00060003  RH  099%=      5-min Rain = 0.01
KLES 080635Z 03009KT 01/00 A3025 RMK A01 T00060003  RH  099%=      5-min Rain = 0
KLES 080640Z 03008KT 01/00 A3025 RMK A01 T00060003  RH  099%=      5-min Rain = 0.01
KLES 080645Z 02009KT 01/00 A3025 RMK A01 T00060003  RH  099%=      5-min Rain = 0.01
KLES 080650Z 02009KT 01/00 A3025 RMK A01 T00050002  RH  099%=      5-min Rain = 0
KLES 080655Z 02010KT 01/00 A3025 RMK A01 T00050002  RH  099%=      5-min Rain = 0.01
KLES 080700Z 02010KT 01/00 A3024 RMK A01 T00050002  RH  099%=      5-min Rain = 0
KLES 080705Z 01011KT 01/00 A3024 RMK A01 T00050002  RH  099%=      5-min Rain = 0.01
KLES 080710Z 01011KT 01/00 A3024 RMK A01 T00050002  RH  099%=      5-min Rain = 0.01
KLES 080715Z 02012KT 01/00 A3024 RMK A01 T00050002  RH  099%=      5-min Rain = 0.01
KLES 080720Z 02011KT 01/00 A3024 RMK A01 T00050002  RH  099%=      5-min Rain = 0
KLES 080725Z 02010KT 01/00 A3024 RMK A01 T00050002  RH  099%=      5-min Rain = 0
KLES 080730Z 02011KT 01/00 A3023 RMK A01 T00060002  RH  099%=      5-min Rain = 0.02
KLES 080735Z 01011KT 01/00 A3023 RMK A01 T00060002  RH  099%=      5-min Rain = 0.01
KLES 080740Z 02009G14KT 01/00 A3023 RMK A01 T00060002  RH  099%=      5-min Rain = 0
KLES 080745Z 02009KT 01/00 A3023 RMK A01 T00060003  RH  099%=      5-min Rain = 0
KLES 080750Z 01009KT 01/00 A3023 RMK A01 T00070003  RH  099%=      5-min Rain = 0.01
KLES 080755Z 01009KT 01/00 A3024 RMK A01 T00070004  RH  099%=      5-min Rain = 0
KLES 080800Z 01009KT 01/00 A3024 RMK A01 T00080004  RH  099%=      5-min Rain = 0.01
KLES 080805Z 01009KT 01/00 A3024 RMK A01 T00080004  RH  099%=      5-min Rain = 0
KLES 080810Z 02009KT 01/00 A3023 RMK A01 T00070004  RH  099%=      5-min Rain = 0.01
KLES 080815Z 01009G14KT 01/00 A3023 RMK A01 T00080004  RH  099%=      5-min Rain = 0.01
KLES 080820Z 02011KT 01/00 A3023 RMK A01 T00070003  RH  098%=      5-min Rain = 0.01
KLES 080825Z 02011KT 01/00 A3023 RMK A01 T00060002  RH  099%=      5-min Rain = 0.01
KLES 080830Z 02010KT 01/00 A3023 RMK A01 T00050002  RH  099%=      5-min Rain = 0.01
KLES 080835Z 01009KT 01/00 A3023 RMK A01 T00050002  RH  099%=      5-min Rain = 0
KLES 080840Z 01010KT 01/00 A3023 RMK A01 T00060002  RH  099%=      5-min Rain = 0.01
KLES 080845Z 01008KT 01/00 A3023 RMK A01 T00060002  RH  099%=      5-min Rain = 0
KLES 080850Z 01009KT 01/00 A3023 RMK A01 T00060003  RH  099%=      5-min Rain = 0
KLES 080855Z 02009KT 01/00 A3023 RMK A01 T00060002  RH  099%=      5-min Rain = 0.01
KLES 080900Z 02010KT 01/00 A3023 RMK A01 T00050002  RH  098%=      5-min Rain = 0
KLES 080905Z 02010KT 01/00 A3022 RMK A01 T00050001  RH  098%=      5-min Rain = 0.01
KLES 080910Z 02011KT 00/00 A3022 RMK A01 T00040000  RH  099%=      5-min Rain = 0.01
KLES 080915Z 02011KT 00/00 A3022 RMK A01 T00040001  RH  099%=      5-min Rain = 0.01
KLES 080920Z 02009KT 00/00 A3022 RMK A01 T00040001  RH  099%=      5-min Rain = 0.01
KLES 080925Z 02010KT 00/00 A3022 RMK A01 T00040001  RH  099%=      5-min Rain = 0
KLES 080930Z 02010KT 00/00 A3023 RMK A01 T00040001  RH  099%=      5-min Rain = 0
KLES 080935Z 02009KT 00/00 A3023 RMK A01 T00040000  RH  099%=      5-min Rain = 0
KLES 080940Z 02009KT 00/00 A3023 RMK A01 T000300-0  RH  099%=      5-min Rain = 0
KLES 080945Z 02009KT 00/00 A3023 RMK A01 T000300-0  RH  099%=      5-min Rain = 0.01
KLES 080950Z 02008KT 00/M00 A3022 RMK A01 T00021001  RH  099%=      5-min Rain = 0
KLES 080955Z 02008KT 00/M00 A3022 RMK A01 T00021001  RH  099%=      5-min Rain = 0
KLES 081000Z 02008KT 00/M00 A3022 RMK A01 T00021001  RH  099%=      5-min Rain = 0
KLES 081005Z 02009KT 00/M00 A3022 RMK A01 T00021001  RH  099%=      5-min Rain = 0
KLES 081010Z 02008KT 00/M00 A3022 RMK A01 T00021001  RH  099%=      5-min Rain = 0
KLES 081015Z 02009KT 00/M00 A3022 RMK A01 T00011002  RH  099%=      5-min Rain = 0
KLES 081020Z 02011KT 00/M00 A3022 RMK A01 T00011002  RH  099%=      5-min Rain = 0
KLES 081025Z 02009KT 00/M00 A3022 RMK A01 T00011002  RH  099%=      5-min Rain = 0.01
KLES 081030Z 02009KT 00/M00 A3022 RMK A01 T00011002  RH  099%=      5-min Rain = 0
KLES 081035Z 01008KT 00/M00 A3023 RMK A01 T00011002  RH  099%=      5-min Rain = 0
KLES 081040Z 01009G14KT 00/M00 A3023 RMK A01 T00011002  RH  099%=      5-min Rain = 0
KLES 081045Z 01008KT 00/M00 A3023 RMK A01 T00011002  RH  099%=      5-min Rain = 0
KLES 081050Z 01008KT 00/00 A3023 RMK A01 T000000-3  RH  099%=      5-min Rain = 0
KLES 081055Z 01009G14KT 00/00 A3023 RMK A01 T00-000-4  RH  099%=      5-min Rain = 0
KLES 081100Z 01009KT M00/M00 A3024 RMK A01 T10011004  RH  099%=      5-min Rain = 0
KLES 081105Z 01009G14KT M00/M00 A3024 RMK A01 T10011004  RH  099%=      5-min Rain = 0
KLES 081110Z 00008KT M00/M01 A3024 RMK A01 T10021005  RH  099%=      5-min Rain = 0
KLES 081115Z 01007KT M00/M01 A3024 RMK A01 T10021005  RH  099%=      5-min Rain = 0
KLES 081120Z 01008KT M00/M01 A3024 RMK A01 T10021005  RH  099%=      5-min Rain = 0.01
KLES 081125Z 02009KT M00/M01 A3024 RMK A01 T10021005  RH  099%=      5-min Rain = 0
KLES 081130Z 03009KT M00/M01 A3023 RMK A01 T10021005  RH  099%=      5-min Rain = 0
KLES 081135Z 02008KT M00/M01 A3024 RMK A01 T10021005  RH  099%=      5-min Rain = 0
KLES 081140Z 02008KT M00/M01 A3024 RMK A01 T10021005  RH  099%=      5-min Rain = 0
KLES 081145Z 02010KT M00/M01 A3024 RMK A01 T10021005  RH  099%=      5-min Rain = 0
KLES 081150Z 02010KT M00/M01 A3024 RMK A01 T10031005  RH  099%=      5-min Rain = 0
KLES 081155Z 02010G15KT M00/M01 A3024 RMK A01 T10031006  RH  099%=      5-min Rain = 0
KLES 081200Z 02008G13KT M00/M01 A3025 RMK A01 T10031005  RH  099%=      5-min Rain = 0
KLES 081205Z 02007KT M00/M01 A3025 RMK A01 T10021005  RH  099%=      5-min Rain = 0
KLES 081210Z 01006KT M00/M01 A3025 RMK A01 T10021005  RH  099%=      5-min Rain = 0
KLES 081215Z 01007KT M00/M01 A3025 RMK A01 T10021005  RH  099%=      5-min Rain = 0
KLES 081220Z 02008KT M00/M01 A3025 RMK A01 T10021005  RH  099%=      5-min Rain = 0
KLES 081225Z 02008G13KT M00/M01 A3025 RMK A01 T10021005  RH  099%=      5-min Rain = 0
KLES 081230Z 02008KT M00/M01 A3025 RMK A01 T10031005  RH  099%=      5-min Rain = 0
KLES 081235Z 02008KT M00/M01 A3025 RMK A01 T10021005  RH  099%=      5-min Rain = 0
KLES 081240Z 02008KT M00/M01 A3025 RMK A01 T10031005  RH  099%=      5-min Rain = 0
KLES 081245Z 02007KT M00/M01 A3026 RMK A01 T10031005  RH  099%=      5-min Rain = 0
KLES 081250Z 01008KT M00/M01 A3026 RMK A01 T10021005  RH  099%=      5-min Rain = 0
KLES 081255Z 01007KT M00/M01 A3026 RMK A01 T10021005  RH  099%=      5-min Rain = 0
KLES 081300Z 01007KT M00/M01 A3026 RMK A01 T10021005  RH  099%=      5-min Rain = 0
KLES 081305Z 02008KT M00/M01 A3026 RMK A01 T10021005  RH  099%=      5-min Rain = 0
KLES 081310Z 02008KT M00/M01 A3027 RMK A01 T10031005  RH  099%=      5-min Rain = 0
KLES 081315Z 01008KT M00/M01 A3027 RMK A01 T10021005  RH  099%=      5-min Rain = 0
KLES 081320Z 01008KT M00/M01 A3027 RMK A01 T10031005  RH  099%=      5-min Rain = 0
KLES 081325Z 01007KT M00/M01 A3027 RMK A01 T10031005  RH  099%=      5-min Rain = 0
KLES 081330Z 01007KT M00/M01 A3027 RMK A01 T10021005  RH  099%=      5-min Rain = 0
KLES 081335Z 01007KT M00/M01 A3027 RMK A01 T10021005  RH  099%=      5-min Rain = 0
KLES 081340Z 01007KT M00/M01 A3028 RMK A01 T10031005  RH  099%=      5-min Rain = 0
KLES 081345Z 01007KT M00/M01 A3028 RMK A01 T10031005  RH  099%=      5-min Rain = 0
KLES 081350Z 00008KT M00/M01 A3028 RMK A01 T10031006  RH  099%=      5-min Rain = 0
KLES 081355Z 01007KT M00/M01 A3028 RMK A01 T10031006  RH  099%=      5-min Rain = 0
KLES 081400Z 01008KT M00/M01 A3028 RMK A01 T10041006  RH  099%=      5-min Rain = 0
KLES 081405Z 01007KT M00/M01 A3028 RMK A01 T10041006  RH  099%=      5-min Rain = 0
KLES 081410Z 01007KT M00/M01 A3029 RMK A01 T10041006  RH  099%=      5-min Rain = 0
KLES 081415Z 01008KT M00/M01 A3029 RMK A01 T10041007  RH  099%=      5-min Rain = 0
KLES 081420Z 01006KT M00/M01 A3029 RMK A01 T10041007  RH  099%=      5-min Rain = 0
KLES 081425Z 01008KT M01/M01 A3029 RMK A01 T10051007  RH  099%=      5-min Rain = 0
KLES 081430Z 01008KT M01/M01 A3029 RMK A01 T10061008  RH  099%=      5-min Rain = 0
KLES 081435Z 00007KT M01/M01 A303 RMK A01 T10051008  RH  099%=      5-min Rain = 0
KLES 081440Z 01008KT M01/M01 A303 RMK A01 T10061008  RH  099%=      5-min Rain = 0
KLES 081445Z 01008KT M01/M01 A303 RMK A01 T10061008  RH  099%=      5-min Rain = 0
KLES 081450Z 01009KT M01/M01 A303 RMK A01 T10061008  RH  099%=      5-min Rain = 0
KLES 081455Z 01008KT M01/M01 A303 RMK A01 T10061008  RH  099%=      5-min Rain = 0
KLES 081500Z 01008KT M01/M01 A3031 RMK A01 T10061008  RH  099%=      5-min Rain = 0
KLES 081505Z 01007KT M01/M01 A3031 RMK A01 T10051007  RH  100%=      5-min Rain = 0
KLES 081510Z 00007KT M01/M01 A3031 RMK A01 T10051007  RH  099%=      5-min Rain = 0
KLES 081515Z 00007G12KT M01/M01 A3031 RMK A01 T10051007  RH  099%=      5-min Rain = 0
KLES 081520Z 01008KT M01/M01 A3031 RMK A01 T10051007  RH  099%=      5-min Rain = 0
KLES 081525Z 01007KT M00/M01 A3032 RMK A01 T10041006  RH  100%=      5-min Rain = 0
KLES 081530Z 01007KT M00/M01 A3032 RMK A01 T10041006  RH  100%=      5-min Rain = 0
KLES 081535Z 01008KT M00/M01 A3032 RMK A01 T10041006  RH  100%=      5-min Rain = 0
KLES 081540Z 01008KT M00/M01 A3032 RMK A01 T10041006  RH  100%=      5-min Rain = 0
KLES 081545Z 00008KT M00/M01 A3032 RMK A01 T10031005  RH  100%=      5-min Rain = 0
KLES 081550Z 01009KT M00/M01 A3032 RMK A01 T10031005  RH  099%=      5-min Rain = 0
KLES 081555Z 01009KT M00/M01 A3032 RMK A01 T10031005  RH  099%=      5-min Rain = 0.01
KLES 081600Z 01009KT M00/M01 A3032 RMK A01 T10031005  RH  100%=      5-min Rain = 0
KLES 081605Z 01008KT M00/M00 A3033 RMK A01 T10021004  RH  100%=      5-min Rain = 0
KLES 081610Z 00008KT M00/M00 A3033 RMK A01 T10021004  RH  099%=      5-min Rain = 0
KLES 081615Z 36007KT M00/M00 A3033 RMK A01 T10021004  RH  099%=      5-min Rain = 0.01
KLES 081620Z 01009KT M00/M00 A3033 RMK A01 T10021004  RH  099%=      5-min Rain = 0
KLES 081625Z 36008KT M00/M00 A3033 RMK A01 T10011003  RH  099%=      5-min Rain = 0
KLES 081630Z 36008KT M00/M00 A3033 RMK A01 T10011004  RH  099%=      5-min Rain = 0
KLES 081635Z 00007KT 00/00 A3033 RMK A01 T00-000-2  RH  099%=      5-min Rain = 0
KLES 081640Z 35007KT 00/00 A3034 RMK A01 T000000-2  RH  099%=      5-min Rain = 0
KLES 081645Z 36008KT 00/M00 A3034 RMK A01 T00011002  RH  099%=      5-min Rain = 0.01
KLES 081650Z 35008KT 00/M00 A3034 RMK A01 T00011002  RH  099%=      5-min Rain = 0
KLES 081655Z 00008KT 00/M00 A3034 RMK A01 T00021001  RH  099%=      5-min Rain = 0
KLES 081700Z 00008KT 00/M00 A3034 RMK A01 T00021001  RH  099%=      5-min Rain = 0.01
KLES 081705Z 01006KT 00/00 A3033 RMK A01 T00040001  RH  099%=      5-min Rain = 0.01
KLES 081710Z 01006KT 01/00 A3033 RMK A01 T00050002  RH  099%=      5-min Rain = 0
KLES 081715Z 35006KT 01/00 A3033 RMK A01 T00060003  RH  099%=      5-min Rain = 0.01
KLES 081720Z 35005KT 01/00 A3034 RMK A01 T00050002  RH  099%=      5-min Rain = 0
KLES 081725Z 35007KT 01/00 A3034 RMK A01 T00070004  RH  099%=      5-min Rain = 0
KLES 081730Z 35007KT 01/00 A3033 RMK A01 T00070004  RH  099%=      5-min Rain = 0
KLES 081735Z 34005KT 01/01 A3033 RMK A01 T00080005  RH  099%=      5-min Rain = 0
KLES 081740Z 34006KT 01/01 A3033 RMK A01 T00090006  RH  099%=      5-min Rain = 0
KLES 081745Z 33006KT 01/01 A3033 RMK A01 T00090006  RH  099%=      5-min Rain = 0
KLES 081750Z 33006KT 01/01 A3033 RMK A01 T00100007  RH  099%=      5-min Rain = 0
KLES 081755Z 34006KT 01/01 A3033 RMK A01 T00110007  RH  099%=      5-min Rain = 0
KLES 081800Z 35005KT 01/01 A3033 RMK A01 T00110007  RH  099%=      5-min Rain = 0
KLES 081805Z 35005KT 01/01 A3032 RMK A01 T00120009  RH  099%=      5-min Rain = 0
KLES 081810Z 36006KT 01/01 A3032 RMK A01 T00110008  RH  098%=      5-min Rain = 0
KLES 081815Z 36007KT 01/01 A3032 RMK A01 T00120008  RH  099%=      5-min Rain = 0
KLES 081820Z 00006KT 01/01 A3032 RMK A01 T00120008  RH  098%=      5-min Rain = 0
KLES 081825Z 35007KT 01/01 A3032 RMK A01 T00130009  RH  099%=      5-min Rain = 0
KLES 081830Z 34007KT 01/01 A3031 RMK A01 T00120008  RH  098%=      5-min Rain = 0
KLES 081835Z 35007KT 01/01 A3031 RMK A01 T00130009  RH  098%=      5-min Rain = 0
KLES 081840Z 36007KT 01/01 A3031 RMK A01 T00130008  RH  098%=      5-min Rain = 0
KLES 081845Z 00006KT 01/01 A303 RMK A01 T00130009  RH  098%=      5-min Rain = 0
KLES 081850Z 00006KT 01/01 A303 RMK A01 T00140010  RH  098%=      5-min Rain = 0
KLES 081855Z 01005KT 01/01 A3029 RMK A01 T00140009  RH  098%=      5-min Rain = 0
KLES 081900Z 01006KT 02/01 A3029 RMK A01 T00150010  RH  098%=      5-min Rain = 0
KLES 081905Z 00006KT 02/01 A3029 RMK A01 T00160011  RH  098%=      5-min Rain = 0
KLES 081910Z 01007KT 02/01 A3029 RMK A01 T00160010  RH  097%=      5-min Rain = 0
KLES 081915Z 35005KT 02/01 A3029 RMK A01 T00170012  RH  097%=      5-min Rain = 0
KLES 081920Z 00006KT 02/01 A3028 RMK A01 T00180012  RH  097%=      5-min Rain = 0
KLES 081925Z 01006KT 02/01 A3028 RMK A01 T00190012  RH  097%=      5-min Rain = 0
KLES 081930Z 01006KT 02/01 A3028 RMK A01 T00190012  RH  097%=      5-min Rain = 0
KLES 081935Z 35006KT 02/01 A3028 RMK A01 T00200013  RH  096%=      5-min Rain = 0
KLES 081940Z 35006KT 02/01 A3028 RMK A01 T00200012  RH  096%=      5-min Rain = 0
KLES 081945Z 35006KT 02/01 A3028 RMK A01 T00210013  RH  096%=      5-min Rain = 0
KLES 081950Z 36006KT 02/01 A3028 RMK A01 T00220014  RH  096%=      5-min Rain = 0
KLES 081955Z 01005KT 02/01 A3028 RMK A01 T00220013  RH  095%=      5-min Rain = 0
KLES 082000Z 36006KT 02/01 A3027 RMK A01 T00220012  RH  095%=      5-min Rain = 0
KLES 082005Z 35005KT 02/01 A3027 RMK A01 T00220012  RH  095%=      5-min Rain = 0
KLES 082010Z 34004KT 02/01 A3027 RMK A01 T00220012  RH  094%=      5-min Rain = 0
KLES 082015Z 35006KT 02/01 A3027 RMK A01 T00230013  RH  094%=      5-min Rain = 0
KLES 082020Z 35005KT 02/01 A3027 RMK A01 T00220011  RH  094%=      5-min Rain = 0
KLES 082025Z 35005KT 02/01 A3027 RMK A01 T00230012  RH  094%=      5-min Rain = 0
KLES 082030Z 00005KT 02/01 A3027 RMK A01 T00230012  RH  093%=      5-min Rain = 0
KLES 082035Z 34005KT 03/01 A3027 RMK A01 T00260014  RH  093%=      5-min Rain = 0
KLES 082040Z 34006KT 03/01 A3026 RMK A01 T00260013  RH  093%=      5-min Rain = 0
KLES 082045Z 33005KT 03/01 A3026 RMK A01 T00260013  RH  092%=      5-min Rain = 0
KLES 082050Z 35005KT 03/01 A3026 RMK A01 T00270013  RH  092%=      5-min Rain = 0
KLES 082055Z 33006KT 03/01 A3026 RMK A01 T00280013  RH  091%=      5-min Rain = 0
KLES 082100Z 35005KT 03/01 A3026 RMK A01 T00290014  RH  091%=      5-min Rain = 0
KLES 082105Z 34006KT 03/01 A3025 RMK A01 T00300013  RH  090%=      5-min Rain = 0
KLES 082110Z 32006KT 03/01 A3025 RMK A01 T00310013  RH  090%=      5-min Rain = 0
KLES 082115Z 32005KT 03/01 A3025 RMK A01 T00300012  RH  089%=      5-min Rain = 0
KLES 082120Z 36005KT 03/01 A3025 RMK A01 T00320013  RH  089%=      5-min Rain = 0
KLES 082125Z 33006KT 03/01 A3025 RMK A01 T00320012  RH  088%=      5-min Rain = 0
KLES 082130Z 32005KT 03/01 A3025 RMK A01 T00320011  RH  088%=      5-min Rain = 0
KLES 082135Z 31007KT 03/01 A3025 RMK A01 T00310010  RH  087%=      5-min Rain = 0
KLES 082140Z 32006KT 03/01 A3025 RMK A01 T00310011  RH  088%=      5-min Rain = 0
KLES 082145Z 32006KT 03/01 A3025 RMK A01 T00320011  RH  088%=      5-min Rain = 0
KLES 082150Z 32005KT 03/01 A3025 RMK A01 T00310009  RH  087%=      5-min Rain = 0
KLES 082155Z 31004G9KT 03/01 A3025 RMK A01 T00300008  RH  087%=      5-min Rain = 0
KLES 082200Z 32005KT 03/01 A3025 RMK A01 T00310009  RH  087%=      5-min Rain = 0
KLES 082205Z 32006KT 03/01 A3026 RMK A01 T00310010  RH  087%=      5-min Rain = 0
KLES 082210Z 31008KT 03/01 A3026 RMK A01 T00300008  RH  086%=      5-min Rain = 0
KLES 082215Z 31008KT 03/01 A3026 RMK A01 T00310007  RH  085%=      5-min Rain = 0
KLES 082220Z 32005KT 03/01 A3026 RMK A01 T00310006  RH  085%=      5-min Rain = 0
KLES 082225Z 31006KT 03/01 A3026 RMK A01 T00320008  RH  085%=      5-min Rain = 0
KLES 082230Z 32006KT 03/01 A3026 RMK A01 T00310006  RH  085%=      5-min Rain = 0
KLES 082235Z 31006KT 03/01 A3026 RMK A01 T00320007  RH  085%=      5-min Rain = 0
KLES 082240Z 30007KT 03/01 A3026 RMK A01 T00320006  RH  084%=      5-min Rain = 0
KLES 082245Z 31006KT 03/01 A3026 RMK A01 T00330008  RH  085%=      5-min Rain = 0
KLES 082250Z 31007KT 03/01 A3026 RMK A01 T00330007  RH  084%=      5-min Rain = 0
KLES 082255Z 31007KT 03/01 A3026 RMK A01 T00310005  RH  084%=      5-min Rain = 0
KLES 082300Z 31007KT 03/01 A3026 RMK A01 T00310005  RH  084%=      5-min Rain = 0
KLES 082305Z 31005KT 03/01 A3027 RMK A01 T00300005  RH  084%=      5-min Rain = 0
KLES 082310Z 30006KT 03/01 A3026 RMK A01 T00310005  RH  085%=      5-min Rain = 0
KLES 082315Z 30007KT 03/01 A3026 RMK A01 T00310006  RH  085%=      5-min Rain = 0
KLES 082320Z 30006KT 03/00 A3026 RMK A01 T00300004  RH  084%=      5-min Rain = 0
KLES 082325Z 29005KT 03/01 A3026 RMK A01 T00300006  RH  085%=      5-min Rain = 0
KLES 082330Z 30005KT 03/01 A3026 RMK A01 T00300005  RH  085%=      5-min Rain = 0
KLES 082335Z 30005KT 03/01 A3026 RMK A01 T00300005  RH  085%=      5-min Rain = 0
KLES 082340Z 32004KT 03/01 A3026 RMK A01 T00300006  RH  086%=      5-min Rain = 0
KLES 082345Z 32004KT 03/01 A3026 RMK A01 T00280005  RH  086%=      5-min Rain = 0
KLES 082350Z 32004KT 03/01 A3026 RMK A01 T00270005  RH  086%=      5-min Rain = 0
KLES 082355Z 31004KT 03/01 A3026 RMK A01 T00270005  RH  087%=      5-min Rain = 0
KLES 090000Z 33004KT 03/01 A3026 RMK A01 T00270005  RH  087%=      5-min Rain = 0
KLES 090005Z 33005KT 03/00 A3026 RMK A01 T00260004  RH  086%=      5-min Rain = 0
KLES 090010Z 33004KT 03/00 A3026 RMK A01 T00250003  RH  086%=      5-min Rain = 0
KLES 090015Z 32005KT 02/00 A3027 RMK A01 T00240003  RH  087%=      5-min Rain = 0
KLES 090020Z 32005KT 02/00 A3027 RMK A01 T00240004  RH  088%=      5-min Rain = 0
KLES 090025Z 33005KT 02/00 A3027 RMK A01 T00230003  RH  088%=      5-min Rain = 0
KLES 090030Z 32005KT 02/00 A3027 RMK A01 T00220003  RH  088%=      5-min Rain = 0
KLES 090035Z 32005KT 02/00 A3027 RMK A01 T00220003  RH  088%=      5-min Rain = 0
KLES 090040Z 32005KT 02/00 A3027 RMK A01 T00220003  RH  089%=      5-min Rain = 0
KLES 090045Z 32006KT 02/00 A3027 RMK A01 T00210004  RH  089%=      5-min Rain = 0
KLES 090050Z 32006KT 02/00 A3027 RMK A01 T00210004  RH  090%=      5-min Rain = 0
KLES 090055Z 32006KT 02/00 A3028 RMK A01 T00210004  RH  090%=      5-min Rain = 0
KLES 090100Z 32007KT 02/00 A3028 RMK A01 T00200003  RH  090%=      5-min Rain = 0
KLES 090105Z 32008KT 02/00 A3028 RMK A01 T00200003  RH  090%=      5-min Rain = 0
KLES 090110Z 31007KT 02/00 A3028 RMK A01 T00190002  RH  089%=      5-min Rain = 0
KLES 090115Z 32006KT 02/00 A3028 RMK A01 T00190002  RH  089%=      5-min Rain = 0
KLES 090120Z 32005KT 02/00 A3028 RMK A01 T00190002  RH  089%=      5-min Rain = 0
KLES 090125Z 32005KT 02/00 A3028 RMK A01 T00190001  RH  089%=      5-min Rain = 0
KLES 090130Z 32006KT 02/00 A3029 RMK A01 T00190001  RH  089%=      5-min Rain = 0
KLES 090135Z 32005KT 02/00 A3029 RMK A01 T00180000  RH  089%=      5-min Rain = 0
KLES 090140Z 30006KT 02/00 A3029 RMK A01 T001800-0  RH  089%=      5-min Rain = 0
KLES 090145Z 30007KT 02/M00 A3029 RMK A01 T00171002  RH  088%=      5-min Rain = 0
KLES 090150Z 30006KT 02/M00 A3029 RMK A01 T00161002  RH  088%=      5-min Rain = 0
KLES 090155Z 29005KT 02/M00 A303 RMK A01 T00161003  RH  088%=      5-min Rain = 0
KLES 090200Z 29005KT 02/M00 A303 RMK A01 T00151003  RH  089%=      5-min Rain = 0
KLES 090205Z 29005KT 02/M00 A303 RMK A01 T00151004  RH  089%=      5-min Rain = 0
KLES 090210Z 31003KT 01/M01 A303 RMK A01 T00131005  RH  089%=      5-min Rain = 0
KLES 090215Z 35003KT 01/M01 A303 RMK A01 T00121006  RH  089%=      5-min Rain = 0
KLES 090220Z 34004KT 01/M01 A303 RMK A01 T00101008  RH  089%=      5-min Rain = 0
KLES 090225Z 33003KT 01/M01 A303 RMK A01 T00091009  RH  089%=      5-min Rain = 0
KLES 090230Z 34002KT 01/M01 A303 RMK A01 T00071010  RH  089%=      5-min Rain = 0
KLES 090235Z 35002KT 01/M01 A303 RMK A01 T00051011  RH  090%=      5-min Rain = 0
KLES 090240Z 35002KT 00/M01 A303 RMK A01 T00041011  RH  090%=      5-min Rain = 0
KLES 090245Z 36003KT 00/M01 A303 RMK A01 T00041011  RH  091%=      5-min Rain = 0
KLES 090250Z 36002KT 00/M01 A303 RMK A01 T00041011  RH  091%=      5-min Rain = 0
KLES 090255Z 00002KT 00/M01 A3031 RMK A01 T00031012  RH  091%=      5-min Rain = 0
KLES 090300Z 00003KT 00/M01 A3031 RMK A01 T00021011  RH  091%=      5-min Rain = 0
KLES 090305Z 00003KT 00/M01 A303 RMK A01 T00021012  RH  092%=      5-min Rain = 0
KLES 090310Z 00003KT 00/M01 A3031 RMK A01 T00011012  RH  092%=      5-min Rain = 0
KLES 090315Z 00003KT 00/01 A3031 RMK A01 T00000-13  RH  092%=      5-min Rain = 0
KLES 090320Z 36003KT 00/01 A3031 RMK A01 T00-00-13  RH  092%=      5-min Rain = 0
KLES 090325Z 36004KT M00/M01 A3031 RMK A01 T10011013  RH  093%=      5-min Rain = 0
KLES 090330Z 36004KT M00/M01 A3031 RMK A01 T10011013  RH  093%=      5-min Rain = 0
KLES 090335Z 36003KT M00/M01 A3031 RMK A01 T10021013  RH  093%=      5-min Rain = 0
KLES 090340Z 34003KT M00/M01 A3031 RMK A01 T10021013  RH  093%=      5-min Rain = 0
KLES 090345Z 34003KT M00/M01 A3032 RMK A01 T10031014  RH  093%=      5-min Rain = 0
KLES 090350Z 35003KT M00/M01 A3032 RMK A01 T10031014  RH  093%=      5-min Rain = 0
KLES 090355Z 35003KT M00/M02 A3032 RMK A01 T10041015  RH  093%=      5-min Rain = 0
KLES 090400Z 35003KT M01/M02 A3031 RMK A01 T10051015  RH  094%=      5-min Rain = 0
KLES 090405Z 35002KT M01/M02 A3031 RMK A01 T10061016  RH  094%=      5-min Rain = 0
KLES 090410Z 35003KT M01/M02 A3031 RMK A01 T10061016  RH  094%=      5-min Rain = 0
KLES 090415Z 35002KT M01/M02 A3031 RMK A01 T10071017  RH  094%=      5-min Rain = 0
KLES 090420Z 35002KT M01/M02 A3031 RMK A01 T10081017  RH  094%=      5-min Rain = 0
KLES 090425Z 34002KT M01/M02 A3031 RMK A01 T10081017  RH  094%=      5-min Rain = 0
KLES 090430Z 33002KT M01/M02 A3031 RMK A01 T10071016  RH  095%=      5-min Rain = 0
KLES 090435Z 33002KT M01/M02 A3031 RMK A01 T10061015  RH  095%=      5-min Rain = 0
KLES 090440Z 32003KT M01/M01 A3031 RMK A01 T10051013  RH  095%=      5-min Rain = 0
KLES 090445Z 33003KT M01/M01 A3031 RMK A01 T10051014  RH  095%=      5-min Rain = 0
KLES 090450Z 34002KT M01/M02 A3031 RMK A01 T10081017  RH  094%=      5-min Rain = 0
KLES 090455Z 33002KT M01/M02 A3031 RMK A01 T10091018  RH  095%=      5-min Rain = 0
KLES 090500Z 31003KT M01/M02 A3031 RMK A01 T10071015  RH  096%=      5-min Rain = 0
KLES 090505Z 30003KT M01/M01 A3031 RMK A01 T10061014  RH  096%=      5-min Rain = 0
KLES 090510Z 30003KT M01/M01 A3032 RMK A01 T10061013  RH  096%=      5-min Rain = 0
KLES 090515Z 29004KT M01/M01 A3032 RMK A01 T10061013  RH  096%=      5-min Rain = 0
KLES 090520Z 30004KT M01/M01 A3032 RMK A01 T10051012  RH  096%=      5-min Rain = 0
KLES 090525Z 31004KT M01/M01 A3032 RMK A01 T10051013  RH  096%=      5-min Rain = 0
KLES 090530Z 32004KT M01/M02 A3032 RMK A01 T10071015  RH  095%=      5-min Rain = 0
KLES 090535Z 32003KT M01/M02 A3031 RMK A01 T10101018  RH  095%=      5-min Rain = 0
KLES 090540Z 32003KT M01/M02 A3031 RMK A01 T10111018  RH  096%=      5-min Rain = 0
KLES 090545Z 32003KT M01/M02 A3031 RMK A01 T10101017  RH  096%=      5-min Rain = 0
KLES 090550Z 33002KT M01/M02 A3031 RMK A01 T10111018  RH  096%=      5-min Rain = 0
KLES 090555Z 31003KT M01/M02 A3031 RMK A01 T10111017  RH  096%=      5-min Rain = 0

Page generated in 0.0089 seconds.